John Murtha Johnstown Cambria County Airport
KJST : now visible

Airfield :











YOU CAN JOIN US ON...

 
LOGIN :

Register | Disclaimer

   EN    FR    IT 

 









Legend :    VFR   Marginal VFR   IFR   Intensive IFR   Very Intensive IFR
Visi :
Ceiling :
>= 8 km
>= 3000ft
5 to 8 km
1000 to 3000 ft
1500m to 5 km
500 to 1000 ft
800 to 1500m
200 to 500 ft
< 800m
< 200 ft
Symbols :   Thunderstorms  Fog  Heavy snow  Heavy precipitations  Wind > 20 kt






- Airport Elevation : 2284 ft
- IATA code : JST


KJST - John Murtha Johnstown Cambria County

CURRENT METAR :
  • 260054Z AUTO 11003KT 10SM CLR 21/16 A3018 RMK AO2 SLP209 T02110161

EXPIRED METARs :
  • 252354Z AUTO 17007KT 10SM CLR 23/16 A3016 RMK AO2 SLP202 T02280161 10272 20228 53002
  • 252254Z AUTO 14007KT 10SM CLR 24/16 A3014 RMK AO2 SLP196 T02440161

TAF KJST
Valid from the 26 at 00:00 until the 27 at 00:00 UTC


252335Z 2600/2624 15007KT P6SM SKC
FM261100 17002KT 4SM BR BKN015
FM261400 15007KT P6SM SKC
KZOB FIR / North America



MET'MAP, your aeronautical weather chart ! - Copyright ORBIFLY December 2007 - Disclaimer

ORBIFLY MET'MAP TEAM :

Programming & Development : Alexandra Zaïnal
Concept & original design : Baudouin d'Aumeries
Assistance for programming : Marc-Olivier Méhu
Technical & hardware support : Manuel Goepfert

Contact : metmap@orbifly.com




SOURCES & CREDITS :

   NOAA       Earth
Advisory